sensor_id;sensor_type;location;lat;lon;timestamp;pressure;altitude;pressure_sealevel;temperature;humidity
74921;BME280;63483;47.384;8.860;2023-07-08T00:02:08;94743.63;;;19.86;35.63
74921;BME280;63483;47.384;8.860;2023-07-08T00:04:34;94742.00;;;19.85;35.86
74921;BME280;63483;47.384;8.860;2023-07-08T00:06:59;94733.94;;;19.79;35.78
74921;BME280;63483;47.384;8.860;2023-07-08T00:09:25;94740.88;;;19.80;35.58
74921;BME280;63483;47.384;8.860;2023-07-08T00:11:50;94746.66;;;19.77;35.68
74921;BME280;63483;47.384;8.860;2023-07-08T00:14:16;94756.81;;;19.80;35.58
74921;BME280;63483;47.384;8.860;2023-07-08T00:16:41;94762.59;;;19.77;35.52
74921;BME280;63483;47.384;8.860;2023-07-08T00:19:09;94757.28;;;19.77;35.83
74921;BME280;63483;47.384;8.860;2023-07-08T00:21:35;94782.47;;;19.75;35.92
74921;BME280;63483;47.384;8.860;2023-07-08T00:24:01;94805.81;;;19.73;35.97
74921;BME280;63483;47.384;8.860;2023-07-08T00:26:28;94826.28;;;19.72;35.85
74921;BME280;63483;47.384;8.860;2023-07-08T00:28:55;94826.13;;;19.55;36.08
74921;BME280;63483;47.384;8.860;2023-07-08T00:31:21;94831.56;;;19.37;36.23
74921;BME280;63483;47.384;8.860;2023-07-08T00:33:49;94834.56;;;19.40;35.92
74921;BME280;63483;47.384;8.860;2023-07-08T00:36:15;94845.75;;;19.42;36.71
74921;BME280;63483;47.384;8.860;2023-07-08T00:38:42;94847.84;;;19.40;36.81
74921;BME280;63483;47.384;8.860;2023-07-08T00:41:20;94842.06;;;19.43;36.95
74921;BME280;63483;47.384;8.860;2023-07-08T00:43:54;94832.00;;;19.45;37.18
74921;BME280;63483;47.384;8.860;2023-07-08T00:49:08;94817.69;;;19.46;37.12
74921;BME280;63483;47.384;8.860;2023-07-08T00:51:38;94818.41;;;19.42;36.71
74921;BME280;63483;47.384;8.860;2023-07-08T00:54:05;94821.84;;;19.42;36.66
74921;BME280;63483;47.384;8.860;2023-07-08T00:56:34;94824.50;;;19.42;36.54
74921;BME280;63483;47.384;8.860;2023-07-08T00:59:09;94830.66;;;19.43;36.61
74921;BME280;63483;47.384;8.860;2023-07-08T01:01:39;94822.44;;;19.44;36.23
74921;BME280;63483;47.384;8.860;2023-07-08T01:04:18;94824.28;;;19.44;36.93
74921;BME280;63483;47.384;8.860;2023-07-08T01:06:47;94826.59;;;19.40;37.25
74921;BME280;63483;47.384;8.860;2023-07-08T01:09:18;94835.13;;;19.42;37.83
74921;BME280;63483;47.384;8.860;2023-07-08T01:11:43;94833.16;;;19.38;37.73
74921;BME280;63483;47.384;8.860;2023-07-08T01:14:12;94825.44;;;19.36;37.46
74921;BME280;63483;47.384;8.860;2023-07-08T01:16:41;94818.53;;;19.35;37.68
74921;BME280;63483;47.384;8.860;2023-07-08T01:19:12;94805.81;;;19.37;37.67
74921;BME280;63483;47.384;8.860;2023-07-08T01:24:19;94827.16;;;19.30;38.00
74921;BME280;63483;47.384;8.860;2023-07-08T01:26:45;94826.38;;;19.30;37.89
74921;BME280;63483;47.384;8.860;2023-07-08T01:29:12;94818.97;;;19.32;37.72
74921;BME280;63483;47.384;8.860;2023-07-08T01:31:37;94806.28;;;19.34;37.65
74921;BME280;63483;47.384;8.860;2023-07-08T01:34:04;94809.97;;;19.33;37.80
74921;BME280;63483;47.384;8.860;2023-07-08T01:36:34;94805.25;;;19.23;37.33
74921;BME280;63483;47.384;8.860;2023-07-08T01:39:02;94818.06;;;19.26;37.32
74921;BME280;63483;47.384;8.860;2023-07-08T01:41:28;94816.22;;;19.27;37.30
74921;BME280;63483;47.384;8.860;2023-07-08T01:43:53;94819.88;;;19.26;38.04
74921;BME280;63483;47.384;8.860;2023-07-08T01:46:23;94816.66;;;19.24;37.56
74921;BME280;63483;47.384;8.860;2023-07-08T01:48:55;94827.28;;;19.24;37.80
74921;BME280;63483;47.384;8.860;2023-07-08T01:51:22;94820.34;;;19.23;37.64
74921;BME280;63483;47.384;8.860;2023-07-08T01:53:49;94828.09;;;19.24;37.41
74921;BME280;63483;47.384;8.860;2023-07-08T01:56:14;94815.88;;;19.23;36.96
74921;BME280;63483;47.384;8.860;2023-07-08T01:58:41;94811.81;;;19.21;36.98
74921;BME280;63483;47.384;8.860;2023-07-08T02:01:07;94807.09;;;19.23;37.28
74921;BME280;63483;47.384;8.860;2023-07-08T02:03:32;94817.25;;;19.26;37.64
74921;BME280;63483;47.384;8.860;2023-07-08T02:05:57;94815.88;;;19.23;37.93
74921;BME280;63483;47.384;8.860;2023-07-08T02:08:23;94816.31;;;19.20;37.35
74921;BME280;63483;47.384;8.860;2023-07-08T02:10:51;94816.53;;;19.19;37.52
74921;BME280;63483;47.384;8.860;2023-07-08T02:13:17;94819.66;;;19.16;37.97
74921;BME280;63483;47.384;8.860;2023-07-08T02:15:42;94814.34;;;19.16;38.21
74921;BME280;63483;47.384;8.860;2023-07-08T02:18:08;94819.66;;;19.16;37.94
74921;BME280;63483;47.384;8.860;2023-07-08T02:20:33;94821.50;;;19.15;37.83
74921;BME280;63483;47.384;8.860;2023-07-08T02:22:58;94820.72;;;19.15;37.53
74921;BME280;63483;47.384;8.860;2023-07-08T02:25:24;94814.81;;;19.12;37.81
74921;BME280;63483;47.384;8.860;2023-07-08T02:27:49;94819.56;;;19.10;37.69
74921;BME280;63483;47.384;8.860;2023-07-08T02:30:15;94816.06;;;19.10;37.58
74921;BME280;63483;47.384;8.860;2023-07-08T02:32:40;94809.72;;;19.11;37.69
74921;BME280;63483;47.384;8.860;2023-07-08T02:35:07;94802.13;;;19.15;37.58
74921;BME280;63483;47.384;8.860;2023-07-08T02:37:33;94794.72;;;19.17;37.29
74921;BME280;63483;47.384;8.860;2023-07-08T02:39:59;94795.19;;;19.14;36.80
74921;BME280;63483;47.384;8.860;2023-07-08T02:42:24;94789.31;;;19.11;36.93
74921;BME280;63483;47.384;8.860;2023-07-08T02:44:49;94793.56;;;19.12;37.09
74921;BME280;63483;47.384;8.860;2023-07-08T02:47:14;94794.41;;;19.13;36.89
74921;BME280;63483;47.384;8.860;2023-07-08T02:49:40;94799.34;;;19.09;36.99
74921;BME280;63483;47.384;8.860;2023-07-08T02:52:05;94793.00;;;19.10;37.00
74921;BME280;63483;47.384;8.860;2023-07-08T02:54:31;94790.81;;;19.07;37.19
74921;BME280;63483;47.384;8.860;2023-07-08T02:56:56;94780.19;;;19.07;37.03
74921;BME280;63483;47.384;8.860;2023-07-08T02:59:21;94794.50;;;19.06;37.33
74921;BME280;63483;47.384;8.860;2023-07-08T03:01:47;94812.97;;;19.01;37.79
74921;BME280;63483;47.384;8.860;2023-07-08T03:04:13;94814.00;;;19.00;37.18
74921;BME280;63483;47.384;8.860;2023-07-08T03:06:43;94820.34;;;18.99;37.43
74921;BME280;63483;47.384;8.860;2023-07-08T03:09:10;94816.03;;;18.98;37.64
74921;BME280;63483;47.384;8.860;2023-07-08T03:11:36;94818.69;;;18.98;37.66
74921;BME280;63483;47.384;8.860;2023-07-08T03:14:02;94834.03;;;18.96;37.33
74921;BME280;63483;47.384;8.860;2023-07-08T03:16:27;94832.06;;;18.91;37.74
74921;BME280;63483;47.384;8.860;2023-07-08T03:18:52;94847.41;;;18.89;37.74
74921;BME280;63483;47.384;8.860;2023-07-08T03:21:18;94847.50;;;18.83;37.83
74921;BME280;63483;47.384;8.860;2023-07-08T03:23:44;94848.66;;;18.87;37.82
74921;BME280;63483;47.384;8.860;2023-07-08T03:26:14;94849.13;;;18.84;37.70
74921;BME280;63483;47.384;8.860;2023-07-08T03:28:40;94849.69;;;18.86;37.65
74921;BME280;63483;47.384;8.860;2023-07-08T03:31:08;94851.66;;;18.90;37.50
74921;BME280;63483;47.384;8.860;2023-07-08T03:33:34;94839.09;;;18.86;38.08
74921;BME280;63483;47.384;8.860;2023-07-08T03:36:00;94845.19;;;18.86;38.00
74921;BME280;63483;47.384;8.860;2023-07-08T03:38:26;94843.00;;;18.83;39.14
74921;BME280;63483;47.384;8.860;2023-07-08T03:40:51;94848.41;;;18.76;38.21
74921;BME280;63483;47.384;8.860;2023-07-08T03:43:16;94868.38;;;18.79;38.25
74921;BME280;63483;47.384;8.860;2023-07-08T03:45:42;94878.16;;;18.78;38.82
74921;BME280;63483;47.384;8.860;2023-07-08T03:48:10;94881.06;;;18.77;39.14
74921;BME280;63483;47.384;8.860;2023-07-08T03:50:35;94883.94;;;18.75;39.22
74921;BME280;63483;47.384;8.860;2023-07-08T03:53:01;94880.78;;;18.67;39.34
74921;BME280;63483;47.384;8.860;2023-07-08T03:55:27;94886.75;;;18.62;39.30
74921;BME280;63483;47.384;8.860;2023-07-08T03:57:53;94886.75;;;18.62;39.08
74921;BME280;63483;47.384;8.860;2023-07-08T04:00:19;94885.75;;;18.63;39.27
74921;BME280;63483;47.384;8.860;2023-07-08T04:02:45;94889.88;;;18.59;39.42
74921;BME280;63483;47.384;8.860;2023-07-08T04:05:20;94892.06;;;18.62;39.39
74921;BME280;63483;47.384;8.860;2023-07-08T04:07:46;94888.25;;;18.58;38.94
74921;BME280;63483;47.384;8.860;2023-07-08T04:10:12;94885.59;;;18.58;39.22
74921;BME280;63483;47.384;8.860;2023-07-08T04:12:39;94880.06;;;18.59;39.41
74921;BME280;63483;47.384;8.860;2023-07-08T04:15:06;94878.00;;;18.62;39.15
74921;BME280;63483;47.384;8.860;2023-07-08T04:17:32;94881.34;;;18.57;39.99
74921;BME280;63483;47.384;8.860;2023-07-08T04:19:58;94894.00;;;18.55;39.74
74921;BME280;63483;47.384;8.860;2023-07-08T04:22:23;94890.31;;;18.56;39.43
74921;BME280;63483;47.384;8.860;2023-07-08T04:24:49;94888.25;;;18.58;39.72
74921;BME280;63483;47.384;8.860;2023-07-08T04:27:16;94896.81;;;18.60;39.70
74921;BME280;63483;47.384;8.860;2023-07-08T04:29:43;94885.81;;;18.56;39.45
74921;BME280;63483;47.384;8.860;2023-07-08T04:32:08;94900.94;;;18.56;39.49
74921;BME280;63483;47.384;8.860;2023-07-08T04:34:33;94898.84;;;18.58;39.49
74921;BME280;63483;47.384;8.860;2023-07-08T04:36:59;94909.84;;;18.62;39.31
74921;BME280;63483;47.384;8.860;2023-07-08T04:39:24;94895.53;;;18.63;39.09
74921;BME280;63483;47.384;8.860;2023-07-08T04:41:49;94903.28;;;18.64;39.48
74921;BME280;63483;47.384;8.860;2023-07-08T04:44:15;94903.06;;;18.66;39.27
74921;BME280;63483;47.384;8.860;2023-07-08T04:46:57;94913.88;;;18.64;40.08
74921;BME280;63483;47.384;8.860;2023-07-08T04:49:24;94929.19;;;18.62;39.81
74921;BME280;63483;47.384;8.860;2023-07-08T04:51:50;94953.88;;;18.63;40.07
74921;BME280;63483;47.384;8.860;2023-07-08T04:54:17;94952.06;;;18.63;39.80
74921;BME280;63483;47.384;8.860;2023-07-08T04:56:45;94962.22;;;18.66;39.35
74921;BME280;63483;47.384;8.860;2023-07-08T04:59:12;94966.50;;;18.67;39.21
74921;BME280;63483;47.384;8.860;2023-07-08T05:01:38;94977.47;;;18.71;38.75
74921;BME280;63483;47.384;8.860;2023-07-08T05:04:05;94974.13;;;18.75;38.02
74921;BME280;63483;47.384;8.860;2023-07-08T05:06:31;94978.28;;;18.53;37.96
74921;BME280;63483;47.384;8.860;2023-07-08T05:08:58;94978.22;;;18.41;38.54
74921;BME280;63483;47.384;8.860;2023-07-08T05:11:23;94983.88;;;18.63;38.39
74921;BME280;63483;47.384;8.860;2023-07-08T05:13:49;94998.16;;;18.81;38.63
74921;BME280;63483;47.384;8.860;2023-07-08T05:16:15;94997.28;;;18.87;40.24
74921;BME280;63483;47.384;8.860;2023-07-08T05:18:40;94994.00;;;18.85;40.78
74921;BME280;63483;47.384;8.860;2023-07-08T05:21:05;94991.22;;;18.80;40.41
74921;BME280;63483;47.384;8.860;2023-07-08T05:23:31;95008.78;;;18.81;41.01
74921;BME280;63483;47.384;8.860;2023-07-08T05:26:00;95027.94;;;18.83;42.63
74921;BME280;63483;47.384;8.860;2023-07-08T05:28:26;95037.81;;;18.75;41.79
74921;BME280;63483;47.384;8.860;2023-07-08T05:30:54;95034.56;;;18.73;40.81
74921;BME280;63483;47.384;8.860;2023-07-08T05:33:24;95030.06;;;18.74;40.09
74921;BME280;63483;47.384;8.860;2023-07-08T05:35:50;95034.56;;;18.73;40.67
74921;BME280;63483;47.384;8.860;2023-07-08T05:38:15;95029.41;;;18.78;40.07
74921;BME280;63483;47.384;8.860;2023-07-08T05:40:40;95040.63;;;18.81;40.36
74921;BME280;63483;47.384;8.860;2023-07-08T05:43:06;95034.88;;;18.84;40.92
74921;BME280;63483;47.384;8.860;2023-07-08T05:45:31;95029.34;;;18.85;41.44
74921;BME280;63483;47.384;8.860;2023-07-08T05:47:57;95025.44;;;18.88;41.58
74921;BME280;63483;47.384;8.860;2023-07-08T05:50:22;95042.38;;;18.87;42.71
74921;BME280;63483;47.384;8.860;2023-07-08T05:52:47;95038.91;;;18.86;42.61
74921;BME280;63483;47.384;8.860;2023-07-08T05:55:13;95052.78;;;18.88;43.26
74921;BME280;63483;47.384;8.860;2023-07-08T05:57:38;95059.94;;;18.88;42.93
74921;BME280;63483;47.384;8.860;2023-07-08T06:00:04;95061.53;;;18.89;42.85
74921;BME280;63483;47.384;8.860;2023-07-08T06:02:30;95057.84;;;18.90;43.04
74921;BME280;63483;47.384;8.860;2023-07-08T06:04:55;95063.50;;;18.93;42.99
74921;BME280;63483;47.384;8.860;2023-07-08T06:07:21;95063.75;;;18.92;43.45
74921;BME280;63483;47.384;8.860;2023-07-08T06:09:46;95072.53;;;18.92;43.32
74921;BME280;63483;47.384;8.860;2023-07-08T06:12:11;95072.47;;;18.99;43.32
74921;BME280;63483;47.384;8.860;2023-07-08T06:14:37;95067.53;;;19.03;43.19
74921;BME280;63483;47.384;8.860;2023-07-08T06:17:04;95072.19;;;19.07;43.01
74921;BME280;63483;47.384;8.860;2023-07-08T06:19:29;95076.00;;;19.11;43.15
74921;BME280;63483;47.384;8.860;2023-07-08T06:21:54;95079.03;;;19.15;43.27
74921;BME280;63483;47.384;8.860;2023-07-08T06:24:20;95078.34;;;19.20;43.44
74921;BME280;63483;47.384;8.860;2023-07-08T06:26:46;95071.78;;;19.22;42.69
74921;BME280;63483;47.384;8.860;2023-07-08T06:29:11;95079.66;;;19.29;42.29
74921;BME280;63483;47.384;8.860;2023-07-08T06:31:36;95079.94;;;19.39;41.74
74921;BME280;63483;47.384;8.860;2023-07-08T06:34:02;95071.44;;;19.49;41.66
74921;BME280;63483;47.384;8.860;2023-07-08T06:36:28;95075.38;;;19.58;40.64
74921;BME280;63483;47.384;8.860;2023-07-08T06:38:53;95066.50;;;19.64;40.09
74921;BME280;63483;47.384;8.860;2023-07-08T06:41:18;95064.81;;;19.70;40.06
74921;BME280;63483;47.384;8.860;2023-07-08T06:43:44;95077.94;;;19.65;40.19
74921;BME280;63483;47.384;8.860;2023-07-08T06:46:09;95073.38;;;19.72;39.44
74921;BME280;63483;47.384;8.860;2023-07-08T06:48:35;95084.00;;;19.72;39.50
74921;BME280;63483;47.384;8.860;2023-07-08T06:51:00;95078.47;;;19.74;39.10
74921;BME280;63483;47.384;8.860;2023-07-08T06:53:25;95071.31;;;19.74;36.90
74921;BME280;63483;47.384;8.860;2023-07-08T06:55:51;95076.03;;;19.72;38.04
74921;BME280;63483;47.384;8.860;2023-07-08T06:58:16;95084.81;;;19.73;38.49
74921;BME280;63483;47.384;8.860;2023-07-08T07:00:43;95072.09;;;19.75;38.56
74921;BME280;63483;47.384;8.860;2023-07-08T07:03:08;95081.34;;;19.72;38.60
74921;BME280;63483;47.384;8.860;2023-07-08T07:05:33;95090.94;;;19.73;37.89
74921;BME280;63483;47.384;8.860;2023-07-08T07:07:59;95078.31;;;19.69;38.54
74921;BME280;63483;47.384;8.860;2023-07-08T07:10:24;95072.63;;;19.65;38.27
74921;BME280;63483;47.384;8.860;2023-07-08T07:12:49;95072.56;;;19.72;38.36
74921;BME280;63483;47.384;8.860;2023-07-08T07:15:15;95074.06;;;19.79;38.10
74921;BME280;63483;47.384;8.860;2023-07-08T07:17:40;95078.13;;;19.82;37.25
74921;BME280;63483;47.384;8.860;2023-07-08T07:20:06;95068.66;;;19.86;37.50
74921;BME280;63483;47.384;8.860;2023-07-08T07:22:31;95068.13;;;19.96;37.43
74921;BME280;63483;47.384;8.860;2023-07-08T07:24:58;95065.47;;;19.96;37.62
74921;BME280;63483;47.384;8.860;2023-07-08T07:27:23;95066.03;;;19.98;36.99
74921;BME280;63483;47.384;8.860;2023-07-08T07:29:50;95075.97;;;20.03;37.68
74921;BME280;63483;47.384;8.860;2023-07-08T07:32:17;95065.47;;;19.96;37.48
74921;BME280;63483;47.384;8.860;2023-07-08T07:34:46;95064.16;;;19.87;37.62
74921;BME280;63483;47.384;8.860;2023-07-08T07:37:13;95065.63;;;19.82;37.88
74921;BME280;63483;47.384;8.860;2023-07-08T07:39:39;95066.69;;;19.81;37.92
74921;BME280;63483;47.384;8.860;2023-07-08T07:42:04;95069.13;;;19.83;37.85
74921;BME280;63483;47.384;8.860;2023-07-08T07:44:30;95055.16;;;19.88;37.85
74921;BME280;63483;47.384;8.860;2023-07-08T07:46:55;95058.63;;;20.00;37.99
74921;BME280;63483;47.384;8.860;2023-07-08T07:49:21;95054.22;;;19.94;37.22
74921;BME280;63483;47.384;8.860;2023-07-08T07:51:46;95046.72;;;20.03;37.06
74921;BME280;63483;47.384;8.860;2023-07-08T07:54:12;95044.53;;;20.11;36.83
74921;BME280;63483;47.384;8.860;2023-07-08T07:56:37;95043.16;;;20.21;37.62
74921;BME280;63483;47.384;8.860;2023-07-08T07:59:03;95044.78;;;20.22;37.47
74921;BME280;63483;47.384;8.860;2023-07-08T08:01:29;95042.22;;;20.27;37.51
74921;BME280;63483;47.384;8.860;2023-07-08T08:03:54;95032.19;;;20.29;37.17
74921;BME280;63483;47.384;8.860;2023-07-08T08:06:19;95042.47;;;20.37;37.91
74921;BME280;63483;47.384;8.860;2023-07-08T08:08:45;95040.88;;;20.48;37.55
74921;BME280;63483;47.384;8.860;2023-07-08T08:11:11;95043.88;;;20.51;37.63
74921;BME280;63483;47.384;8.860;2023-07-08T08:13:37;95040.41;;;20.63;36.83
74921;BME280;63483;47.384;8.860;2023-07-08T08:16:03;95040.03;;;20.71;36.84
74921;BME280;63483;47.384;8.860;2023-07-08T08:18:29;95040.63;;;20.73;36.89
74921;BME280;63483;47.384;8.860;2023-07-08T08:20:54;95028.78;;;20.81;36.34
74921;BME280;63483;47.384;8.860;2023-07-08T08:23:20;95029.47;;;21.00;36.63
74921;BME280;63483;47.384;8.860;2023-07-08T08:25:45;95026.56;;;21.01;35.68
74921;BME280;63483;47.384;8.860;2023-07-08T08:28:10;95022.72;;;21.09;35.98
74921;BME280;63483;47.384;8.860;2023-07-08T08:30:36;95026.75;;;21.12;35.93
74921;BME280;63483;47.384;8.860;2023-07-08T08:33:01;95024.53;;;21.20;35.92
74921;BME280;63483;47.384;8.860;2023-07-08T08:35:27;95021.19;;;21.13;36.04
74921;BME280;63483;47.384;8.860;2023-07-08T08:37:53;95023.84;;;21.13;36.27
74921;BME280;63483;47.384;8.860;2023-07-08T08:40:19;95016.28;;;21.22;35.11
74921;BME280;63483;47.384;8.860;2023-07-08T08:42:56;95008.25;;;21.34;35.29
74921;BME280;63483;47.384;8.860;2023-07-08T08:45:23;95006.31;;;21.46;35.93
74921;BME280;63483;47.384;8.860;2023-07-08T08:47:58;95001.09;;;21.51;34.33
74921;BME280;63483;47.384;8.860;2023-07-08T08:50:50;94995.66;;;21.46;33.63
74921;BME280;63483;47.384;8.860;2023-07-08T08:53:17;95001.97;;;21.40;33.57
74921;BME280;63483;47.384;8.860;2023-07-08T08:55:43;94994.03;;;21.45;33.09
74921;BME280;63483;47.384;8.860;2023-07-08T08:58:42;94991.13;;;21.47;34.20
74921;BME280;63483;47.384;8.860;2023-07-08T09:01:12;94981.88;;;21.49;34.51
74921;BME280;63483;47.384;8.860;2023-07-08T09:03:49;94989.38;;;21.52;34.22
74921;BME280;63483;47.384;8.860;2023-07-08T09:08:46;94979.84;;;21.56;33.34
74921;BME280;63483;47.384;8.860;2023-07-08T09:13:58;94971.09;;;21.73;33.57
74921;BME280;63483;47.384;8.860;2023-07-08T09:19:12;94972.38;;;21.87;32.68
74921;BME280;63483;47.384;8.860;2023-07-08T09:21:49;94971.78;;;22.02;32.90
74921;BME280;63483;47.384;8.860;2023-07-08T09:24:21;94977.91;;;22.20;32.43
74921;BME280;63483;47.384;8.860;2023-07-08T09:26:50;94973.56;;;22.14;31.41
74921;BME280;63483;47.384;8.860;2023-07-08T09:29:17;94973.88;;;22.17;31.98
74921;BME280;63483;47.384;8.860;2023-07-08T09:31:43;94966.03;;;22.28;33.04
74921;BME280;63483;47.384;8.860;2023-07-08T09:34:14;94963.50;;;22.38;31.70
74921;BME280;63483;47.384;8.860;2023-07-08T09:36:45;94959.94;;;22.49;31.50
74921;BME280;63483;47.384;8.860;2023-07-08T09:39:17;94954.00;;;22.47;31.46
74921;BME280;63483;47.384;8.860;2023-07-08T09:41:44;94953.47;;;22.45;31.32
74921;BME280;63483;47.384;8.860;2023-07-08T09:46:41;94957.44;;;22.42;31.40
74921;BME280;63483;47.384;8.860;2023-07-08T09:49:23;94956.31;;;22.60;31.39
74921;BME280;63483;47.384;8.860;2023-07-08T09:51:50;94957.31;;;22.54;30.98
74921;BME280;63483;47.384;8.860;2023-07-08T09:54:17;94963.03;;;22.63;31.44
74921;BME280;63483;47.384;8.860;2023-07-08T09:56:50;94966.31;;;22.70;30.60
74921;BME280;63483;47.384;8.860;2023-07-08T09:59:19;94968.72;;;22.72;31.84
74921;BME280;63483;47.384;8.860;2023-07-08T10:01:46;94977.50;;;22.67;31.37
74921;BME280;63483;47.384;8.860;2023-07-08T10:04:11;94974.78;;;22.84;31.91
74921;BME280;63483;47.384;8.860;2023-07-08T10:06:37;94981.84;;;22.95;32.07
74921;BME280;63483;47.384;8.860;2023-07-08T10:09:11;94982.56;;;23.13;31.18
74921;BME280;63483;47.384;8.860;2023-07-08T10:11:43;94978.63;;;23.21;30.83
74921;BME280;63483;47.384;8.860;2023-07-08T10:14:12;94979.59;;;23.37;31.01
74921;BME280;63483;47.384;8.860;2023-07-08T10:16:41;94982.66;;;23.45;30.97
74921;BME280;63483;47.384;8.860;2023-07-08T10:19:15;94978.72;;;23.53;31.10
74921;BME280;63483;47.384;8.860;2023-07-08T10:24:19;94983.13;;;23.70;29.88
74921;BME280;63483;47.384;8.860;2023-07-08T10:26:55;94986.13;;;23.78;30.20
74921;BME280;63483;47.384;8.860;2023-07-08T10:29:34;94992.16;;;23.96;29.49
74921;BME280;63483;47.384;8.860;2023-07-08T10:34:56;94986.06;;;24.00;29.81
74921;BME280;63483;47.384;8.860;2023-07-08T10:40:21;94982.88;;;24.04;29.95
74921;BME280;63483;47.384;8.860;2023-07-08T10:51:01;94980.19;;;24.04;29.21
74921;BME280;63483;47.384;8.860;2023-07-08T10:53:37;94979.13;;;24.05;29.42
74921;BME280;63483;47.384;8.860;2023-07-08T10:56:15;94979.19;;;24.15;29.64
74921;BME280;63483;47.384;8.860;2023-07-08T11:07:05;94975.56;;;24.37;30.59
74921;BME280;63483;47.384;8.860;2023-07-08T11:12:39;94978.81;;;24.39;29.89
74921;BME280;63483;47.384;8.860;2023-07-08T11:20:21;94977.13;;;24.27;30.50
74921;BME280;63483;47.384;8.860;2023-07-08T11:23:02;94980.59;;;24.28;29.94
74921;BME280;63483;47.384;8.860;2023-07-08T11:25:31;94978.75;;;24.28;30.80
74921;BME280;63483;47.384;8.860;2023-07-08T11:27:59;94977.13;;;24.32;30.13
74921;BME280;63483;47.384;8.860;2023-07-08T11:30:30;94975.03;;;24.34;30.05
74921;BME280;63483;47.384;8.860;2023-07-08T11:33:01;94982.81;;;24.41;30.74
74921;BME280;63483;47.384;8.860;2023-07-08T11:35:36;94981.47;;;24.39;30.58
74921;BME280;63483;47.384;8.860;2023-07-08T11:38:03;94979.88;;;24.43;29.76
74921;BME280;63483;47.384;8.860;2023-07-08T11:40:29;94980.44;;;24.45;30.13
74921;BME280;63483;47.384;8.860;2023-07-08T11:43:03;94979.44;;;24.56;29.85
74921;BME280;63483;47.384;8.860;2023-07-08T11:45:37;94973.84;;;24.63;29.66
74921;BME280;63483;47.384;8.860;2023-07-08T11:50:38;94972.56;;;24.86;28.71
74921;BME280;63483;47.384;8.860;2023-07-08T11:53:09;94970.50;;;24.98;28.87
74921;BME280;63483;47.384;8.860;2023-07-08T11:58:20;94978.47;;;24.83;28.54
74921;BME280;63483;47.384;8.860;2023-07-08T12:01:17;94966.44;;;24.85;28.38
74921;BME280;63483;47.384;8.860;2023-07-08T12:03:58;94956.66;;;23.73;29.64
74921;BME280;63483;47.384;8.860;2023-07-08T12:08:53;94961.47;;;24.04;29.95
74921;BME280;63483;47.384;8.860;2023-07-08T12:11:25;94958.53;;;24.10;30.66
74921;BME280;63483;47.384;8.860;2023-07-08T12:13:52;94956.75;;;24.21;30.35
74921;BME280;63483;47.384;8.860;2023-07-08T12:16:17;94964.28;;;24.29;31.03
74921;BME280;63483;47.384;8.860;2023-07-08T12:18:43;94961.91;;;24.38;31.71
74921;BME280;63483;47.384;8.860;2023-07-08T12:21:12;94968.38;;;24.47;32.00
74921;BME280;63483;47.384;8.860;2023-07-08T12:23:44;94974.91;;;24.57;30.86
74921;BME280;63483;47.384;8.860;2023-07-08T12:26:10;94969.81;;;24.60;30.06
74921;BME280;63483;47.384;8.860;2023-07-08T12:28:39;94965.28;;;24.71;29.93
74921;BME280;63483;47.384;8.860;2023-07-08T12:31:17;94966.19;;;24.92;30.33
74921;BME280;63483;47.384;8.860;2023-07-08T12:33:43;94974.59;;;25.11;29.79
74921;BME280;63483;47.384;8.860;2023-07-08T12:36:10;94971.13;;;25.26;29.14
74921;BME280;63483;47.384;8.860;2023-07-08T12:38:41;94961.50;;;25.46;28.56
74921;BME280;63483;47.384;8.860;2023-07-08T12:41:22;94962.81;;;25.43;28.41
74921;BME280;63483;47.384;8.860;2023-07-08T12:43:48;94962.03;;;25.48;27.88
74921;BME280;63483;47.384;8.860;2023-07-08T12:46:16;94957.47;;;25.28;28.77
74921;BME280;63483;47.384;8.860;2023-07-08T12:48:42;94963.09;;;25.52;28.20
74921;BME280;63483;47.384;8.860;2023-07-08T12:51:20;94959.38;;;25.73;27.81
74921;BME280;63483;47.384;8.860;2023-07-08T12:53:46;94951.59;;;25.82;27.62
74921;BME280;63483;47.384;8.860;2023-07-08T12:56:12;94951.31;;;25.89;27.82
74921;BME280;63483;47.384;8.860;2023-07-08T12:58:41;94947.03;;;25.88;27.64
74921;BME280;63483;47.384;8.860;2023-07-08T13:01:07;94945.41;;;25.92;27.06
74921;BME280;63483;47.384;8.860;2023-07-08T13:03:41;94940.06;;;25.82;28.26
74921;BME280;63483;47.384;8.860;2023-07-08T13:06:09;94933.63;;;25.78;26.99
74921;BME280;63483;47.384;8.860;2023-07-08T13:08:36;94938.44;;;25.91;27.70
74921;BME280;63483;47.384;8.860;2023-07-08T13:11:03;94938.16;;;26.08;27.80
74921;BME280;63483;47.384;8.860;2023-07-08T13:13:37;94937.63;;;25.80;26.89
74921;BME280;63483;47.384;8.860;2023-07-08T13:16:04;94938.97;;;25.88;26.83
74921;BME280;63483;47.384;8.860;2023-07-08T13:18:36;94937.31;;;26.18;26.92
74921;BME280;63483;47.384;8.860;2023-07-08T13:21:04;94943.22;;;26.15;27.56
74921;BME280;63483;47.384;8.860;2023-07-08T13:23:31;94942.97;;;26.21;27.60
74921;BME280;63483;47.384;8.860;2023-07-08T13:25:57;94937.41;;;25.66;28.35
74921;BME280;63483;47.384;8.860;2023-07-08T13:28:25;94934.16;;;25.85;27.77
74921;BME280;63483;47.384;8.860;2023-07-08T13:31:20;94931.44;;;25.95;28.21
74921;BME280;63483;47.384;8.860;2023-07-08T13:33:50;94938.41;;;26.01;27.54
74921;BME280;63483;47.384;8.860;2023-07-08T13:36:19;94938.41;;;26.06;27.35
74921;BME280;63483;47.384;8.860;2023-07-08T13:38:45;94936.81;;;25.95;27.38
74921;BME280;63483;47.384;8.860;2023-07-08T13:41:10;94935.22;;;25.99;27.38
74921;BME280;63483;47.384;8.860;2023-07-08T13:43:39;94935.47;;;25.98;27.91
74921;BME280;63483;47.384;8.860;2023-07-08T13:46:06;94937.63;;;25.90;27.78
74921;BME280;63483;47.384;8.860;2023-07-08T13:48:51;94939.25;;;25.91;27.30
74921;BME280;63483;47.384;8.860;2023-07-08T13:51:19;94934.13;;;26.00;26.90
74921;BME280;63483;47.384;8.860;2023-07-08T13:53:56;94928.25;;;25.88;26.78
74921;BME280;63483;47.384;8.860;2023-07-08T13:56:31;94933.34;;;25.84;26.94
74921;BME280;63483;47.384;8.860;2023-07-08T14:01:29;94934.41;;;25.52;27.46
74921;BME280;63483;47.384;8.860;2023-07-08T14:03:56;94937.91;;;25.43;28.02